Terminal Aerodrome Forecast
Issued by NWS

Home | Current Version | Previous Version | Text Only | Print | Product List | Glossary On
Versions: 1 2 3 4 5 6 7 8 9 10 11 12 13 14
000
FTUS46 KLOX 191700
TAFBUR
TAF
KBUR 191735Z 1918/2018 VRB04KT P6SM BKN250
     FM192300 VRB03KT P6SM SCT025 BKN100
     FM200800 VRB03KT P6SM SCT025 SCT100=

USA.gov is the U.S. government's official web portal to all federal, state and local government web resources and services.